createdAt,value
2024-01-15T00:00:17.468Z,1000.83
2024-01-15T00:01:17.522Z,1000.79
2024-01-15T00:02:17.400Z,1000.81
2024-01-15T00:03:17.514Z,1000.79
2024-01-15T00:04:17.552Z,1000.78
2024-01-15T00:05:17.368Z,1000.80
2024-01-15T00:06:17.419Z,1000.74
2024-01-15T00:07:17.363Z,1000.78
2024-01-15T00:08:17.327Z,1000.74
2024-01-15T00:09:17.379Z,1000.68
2024-01-15T00:10:17.309Z,1000.70
2024-01-15T00:11:17.290Z,1000.65
2024-01-15T00:12:17.293Z,1000.70
2024-01-15T00:13:17.268Z,1000.74
2024-01-15T00:14:17.268Z,1000.64
2024-01-15T00:15:17.315Z,1000.60
2024-01-15T00:16:17.277Z,1000.66
2024-01-15T00:17:17.245Z,1000.63
2024-01-15T00:18:17.387Z,1000.62
2024-01-15T00:19:17.316Z,1000.62
2024-01-15T00:20:17.195Z,1000.58
2024-01-15T00:21:17.231Z,1000.50
2024-01-15T00:22:17.195Z,1000.49
2024-01-15T00:23:17.189Z,1000.49
2024-01-15T00:24:17.207Z,1000.51
2024-01-15T00:25:17.142Z,1000.52
2024-01-15T00:26:17.150Z,1000.52
2024-01-15T00:27:17.161Z,1000.53
2024-01-15T00:28:17.118Z,1000.50
2024-01-15T00:29:17.097Z,1000.47
2024-01-15T00:30:17.251Z,1000.47
2024-01-15T00:31:17.203Z,1000.50
2024-01-15T00:32:17.107Z,1000.45
2024-01-15T00:33:17.333Z,1000.46
2024-01-15T00:34:17.212Z,1000.46
2024-01-15T00:35:17.038Z,1000.44
2024-01-15T00:36:17.128Z,1000.37
2024-01-15T00:37:17.028Z,1000.38
2024-01-15T00:38:17.028Z,1000.32
2024-01-15T00:39:17.125Z,1000.28
2024-01-15T00:40:16.998Z,1000.20
2024-01-15T00:41:16.972Z,1000.23
2024-01-15T00:42:17.025Z,1000.20
2024-01-15T00:43:16.953Z,1000.23
2024-01-15T00:44:16.938Z,1000.22
2024-01-15T00:45:16.948Z,1000.20
2024-01-15T00:46:16.955Z,1000.25
2024-01-15T00:47:16.918Z,1000.17
2024-01-15T00:48:17.076Z,1000.20
2024-01-15T00:49:17.110Z,1000.18
2024-01-15T00:50:16.905Z,1000.18
2024-01-15T00:51:16.928Z,1000.17
2024-01-15T00:52:16.852Z,1000.14
2024-01-15T00:53:16.854Z,1000.11
2024-01-15T00:54:16.871Z,1000.08
2024-01-15T00:55:16.835Z,1000.10
2024-01-15T00:56:16.832Z,1000.12
2024-01-15T00:57:16.839Z,1000.10
2024-01-15T00:58:16.791Z,1000.13
2024-01-15T00:59:16.813Z,1000.10
2024-01-15T01:00:16.880Z,1000.17
2024-01-15T01:01:16.851Z,1000.11
2024-01-15T01:02:16.742Z,1000.10
2024-01-15T01:03:16.862Z,1000.13
2024-01-15T01:04:16.902Z,1000.13
2024-01-15T01:05:16.768Z,1000.09
2024-01-15T01:06:16.710Z,1000.12
2024-01-15T01:07:16.704Z,1000.08
2024-01-15T01:08:16.685Z,1000.05
2024-01-15T01:09:16.777Z,1000.08
2024-01-15T01:10:16.671Z,1000.05
2024-01-15T01:11:16.649Z,1000.06
2024-01-15T01:12:16.660Z,1000.05
2024-01-15T01:13:16.646Z,1000.04
2024-01-15T01:14:16.652Z,1000.02
2024-01-15T01:15:16.674Z,1000.06
2024-01-15T01:16:16.604Z,1000.04
2024-01-15T01:17:16.629Z,1000.01
2024-01-15T01:18:16.719Z,999.93
2024-01-15T01:19:16.749Z,1000.02
2024-01-15T01:20:18.947Z,1000.01
2024-01-15T01:21:16.585Z,1000.00
2024-01-15T01:22:16.536Z,999.98
2024-01-15T01:23:16.526Z,999.95
2024-01-15T01:24:16.561Z,999.96
2024-01-15T01:25:16.559Z,999.94
2024-01-15T01:26:16.490Z,999.92
2024-01-15T01:27:16.529Z,999.95
2024-01-15T01:28:16.482Z,999.91
2024-01-15T01:29:16.475Z,999.88
2024-01-15T01:30:16.586Z,999.87
2024-01-15T01:31:16.570Z,999.85
2024-01-15T01:32:16.433Z,999.86
2024-01-15T01:33:16.542Z,999.90
2024-01-15T01:34:16.575Z,999.89
2024-01-15T01:35:16.395Z,999.90
2024-01-15T01:36:16.468Z,999.88
2024-01-15T01:37:16.385Z,999.91
2024-01-15T01:38:16.375Z,999.90
2024-01-15T01:39:16.416Z,999.88
2024-01-15T01:40:16.362Z,999.88
2024-01-15T01:41:16.342Z,999.84
2024-01-15T01:42:16.439Z,999.83
2024-01-15T01:43:16.327Z,999.85
2024-01-15T01:44:16.320Z,999.82
2024-01-15T01:45:16.332Z,999.78
2024-01-15T01:46:16.287Z,999.80
2024-01-15T01:47:16.285Z,999.85
2024-01-15T01:48:16.343Z,999.79
2024-01-15T01:49:16.322Z,999.82
2024-01-15T01:50:16.255Z,999.82
2024-01-15T01:51:16.274Z,999.85
2024-01-15T01:52:16.236Z,999.84
2024-01-15T01:53:16.212Z,999.82
2024-01-15T01:54:16.215Z,999.82
2024-01-15T01:55:16.190Z,999.88
2024-01-15T01:56:16.198Z,999.84
2024-01-15T01:57:16.229Z,999.84
2024-01-15T01:58:16.160Z,999.91
2024-01-15T01:59:16.165Z,999.84
2024-01-15T02:00:16.153Z,999.94
2024-01-15T02:01:16.232Z,999.95
2024-01-15T02:02:16.122Z,999.95
2024-01-15T02:03:16.169Z,999.91
2024-01-15T02:04:19.681Z,999.97
2024-01-15T02:05:16.095Z,999.94
2024-01-15T02:06:16.125Z,999.99
2024-01-15T02:07:16.086Z,1000.00
2024-01-15T02:08:16.049Z,999.99
2024-01-15T02:09:16.174Z,1000.06
2024-01-15T02:10:16.030Z,1000.05
2024-01-15T02:11:16.041Z,1000.03
2024-01-15T02:12:16.036Z,1000.04
2024-01-15T02:13:16.001Z,1000.08
2024-01-15T02:14:16.019Z,1000.06
2024-01-15T02:15:16.015Z,1000.04
2024-01-15T02:16:15.953Z,1000.04
2024-01-15T02:17:15.953Z,1000.04
2024-01-15T02:18:16.059Z,1000.03
2024-01-15T02:19:16.104Z,1000.08
2024-01-15T02:20:15.920Z,1000.08
2024-01-15T02:21:15.947Z,1000.12
2024-01-15T02:22:15.907Z,1000.04
2024-01-15T02:23:15.902Z,1000.04
2024-01-15T02:24:15.907Z,999.96
2024-01-15T02:25:15.870Z,1000.01
2024-01-15T02:26:15.862Z,1000.00
2024-01-15T02:27:15.856Z,1000.02
2024-01-15T02:28:15.873Z,999.98
2024-01-15T02:29:15.851Z,1000.00
2024-01-15T02:30:15.865Z,1000.01
2024-01-15T02:31:15.849Z,1000.00
2024-01-15T02:32:15.784Z,1000.02
2024-01-15T02:33:15.932Z,999.96
2024-01-15T02:34:15.861Z,1000.00
2024-01-15T02:35:15.769Z,999.98
2024-01-15T02:36:15.814Z,1000.01
2024-01-15T02:37:15.734Z,1000.04
2024-01-15T02:38:15.726Z,999.94
2024-01-15T02:39:15.752Z,1000.03
2024-01-15T02:40:15.702Z,999.94
2024-01-15T02:41:15.691Z,1000.01
2024-01-15T02:42:15.720Z,1000.03
2024-01-15T02:43:15.689Z,1000.00
2024-01-15T02:44:15.652Z,1000.05
2024-01-15T02:45:15.670Z,999.97
2024-01-15T02:46:15.631Z,1000.03
2024-01-15T02:47:15.654Z,1000.03
2024-01-15T02:48:15.803Z,1000.02
2024-01-15T02:49:15.721Z,1000.00
2024-01-15T02:50:15.610Z,1000.02
2024-01-15T02:51:15.655Z,999.99
2024-01-15T02:52:15.579Z,1000.03
2024-01-15T02:53:15.566Z,1000.00
2024-01-15T02:54:15.591Z,999.98
2024-01-15T02:55:15.538Z,999.98
2024-01-15T02:56:15.529Z,999.96
2024-01-15T02:57:15.574Z,999.96
2024-01-15T02:58:15.508Z,999.93
2024-01-15T02:59:15.498Z,999.96
2024-01-15T03:00:15.640Z,999.99
2024-01-15T03:01:15.579Z,1000.02
2024-01-15T03:02:15.513Z,1000.02
2024-01-15T03:03:15.479Z,1000.01
2024-01-15T03:04:15.629Z,1000.05
2024-01-15T03:05:15.681Z,1000.00
2024-01-15T03:06:15.459Z,1000.05
2024-01-15T03:07:15.422Z,1000.06
2024-01-15T03:08:15.401Z,1000.01
2024-01-15T03:09:15.482Z,1000.03
2024-01-15T03:10:15.376Z,999.99
2024-01-15T03:11:15.400Z,999.99
2024-01-15T03:12:15.377Z,999.99
2024-01-15T03:13:15.379Z,999.97
2024-01-15T03:14:15.344Z,999.99
2024-01-15T03:15:15.365Z,999.95
2024-01-15T03:16:15.328Z,999.94
2024-01-15T03:17:15.312Z,999.96
2024-01-15T03:18:15.352Z,999.99
2024-01-15T03:19:15.356Z,1000.01
2024-01-15T03:20:15.332Z,1000.02
2024-01-15T03:21:15.345Z,999.97
2024-01-15T03:22:15.252Z,1000.02
2024-01-15T03:23:15.273Z,999.99
2024-01-15T03:24:15.248Z,1000.06
2024-01-15T03:25:15.247Z,1000.03
2024-01-15T03:26:15.218Z,1000.01
2024-01-15T03:27:15.224Z,1000.00
2024-01-15T03:28:15.191Z,1000.00
2024-01-15T03:29:15.201Z,999.98
2024-01-15T03:30:15.247Z,999.94
2024-01-15T03:31:15.241Z,1000.00
2024-01-15T03:32:15.159Z,999.98
2024-01-15T03:33:15.224Z,1000.00
2024-01-15T03:34:15.209Z,999.96
2024-01-15T03:35:15.201Z,999.94
2024-01-15T03:36:15.122Z,999.91
2024-01-15T03:37:15.098Z,999.97
2024-01-15T03:38:15.084Z,999.95
2024-01-15T03:39:15.142Z,999.93
2024-01-15T03:40:16.030Z,999.90
2024-01-15T03:41:15.071Z,999.88
2024-01-15T03:42:15.069Z,999.91
2024-01-15T03:43:15.052Z,999.94
2024-01-15T03:44:15.030Z,999.90
2024-01-15T03:45:15.054Z,999.90
2024-01-15T03:46:15.000Z,999.89
2024-01-15T03:47:15.006Z,999.92
2024-01-15T03:48:15.203Z,999.95
2024-01-15T03:49:15.035Z,999.89
2024-01-15T03:50:14.979Z,999.91
2024-01-15T03:51:14.969Z,999.95
2024-01-15T03:52:14.933Z,999.99
2024-01-15T03:53:14.941Z,999.95
2024-01-15T03:54:16.539Z,999.97
2024-01-15T03:55:14.909Z,999.92
2024-01-15T03:56:14.900Z,999.96
2024-01-15T03:57:14.946Z,999.90
2024-01-15T03:58:14.887Z,999.85
2024-01-15T03:59:14.887Z,999.82
2024-01-15T04:00:14.900Z,999.76
2024-01-15T04:01:14.887Z,999.77
2024-01-15T04:02:14.846Z,999.70
2024-01-15T04:03:14.857Z,999.73
2024-01-15T04:04:16.663Z,999.70
2024-01-15T04:05:14.801Z,999.67
2024-01-15T04:06:14.857Z,999.73
2024-01-15T04:07:14.810Z,999.67
2024-01-15T04:08:14.758Z,999.71
2024-01-15T04:09:14.806Z,999.72
2024-01-15T04:10:14.738Z,999.68
2024-01-15T04:11:14.745Z,999.68
2024-01-15T04:12:14.773Z,999.66
2024-01-15T04:13:14.705Z,999.65
2024-01-15T04:14:14.704Z,999.60
2024-01-15T04:15:14.792Z,999.63
2024-01-15T04:16:14.700Z,999.59
2024-01-15T04:17:14.677Z,999.53
2024-01-15T04:18:14.732Z,999.57
2024-01-15T04:19:14.737Z,999.57
2024-01-15T04:20:14.642Z,999.55
2024-01-15T04:21:14.664Z,999.55
2024-01-15T04:22:14.606Z,999.59
2024-01-15T04:23:14.599Z,999.59
2024-01-15T04:24:14.748Z,999.63
2024-01-15T04:25:14.592Z,999.59
2024-01-15T04:26:14.579Z,999.61
2024-01-15T04:27:14.581Z,999.55
2024-01-15T04:28:14.556Z,999.58
2024-01-15T04:29:14.536Z,999.51
2024-01-15T04:30:14.801Z,999.49
2024-01-15T04:31:14.577Z,999.49
2024-01-15T04:32:14.506Z,999.47
2024-01-15T04:33:14.648Z,999.46
2024-01-15T04:34:14.645Z,999.49
2024-01-15T04:35:14.503Z,999.50
2024-01-15T04:36:14.490Z,999.51
2024-01-15T04:37:14.459Z,999.49
2024-01-15T04:38:14.458Z,999.49
2024-01-15T04:39:14.492Z,999.51
2024-01-15T04:40:14.430Z,999.46
2024-01-15T04:41:14.423Z,999.43
2024-01-15T04:42:14.414Z,999.38
2024-01-15T04:43:14.390Z,999.41
2024-01-15T04:44:14.388Z,999.48
2024-01-15T04:45:14.428Z,999.40
2024-01-15T04:46:14.359Z,999.46
2024-01-15T04:47:14.353Z,999.41
2024-01-15T04:48:14.400Z,999.34
2024-01-15T04:49:14.491Z,999.42
2024-01-15T04:50:14.330Z,999.33
2024-01-15T04:51:14.330Z,999.32
2024-01-15T04:52:14.297Z,999.38
2024-01-15T04:53:14.330Z,999.34
2024-01-15T04:54:14.297Z,999.36
2024-01-15T04:55:14.289Z,999.34
2024-01-15T04:56:14.253Z,999.35
2024-01-15T04:57:14.314Z,999.30
2024-01-15T04:58:14.248Z,999.32
2024-01-15T04:59:14.227Z,999.34
2024-01-15T05:00:14.263Z,999.35
2024-01-15T05:01:14.293Z,999.35
2024-01-15T05:02:14.224Z,999.29
2024-01-15T05:03:14.343Z,999.30
2024-01-15T05:04:14.223Z,999.28
2024-01-15T05:05:14.200Z,999.27
2024-01-15T05:06:14.251Z,999.23
2024-01-15T05:07:14.145Z,999.27
2024-01-15T05:08:14.133Z,999.31
2024-01-15T05:09:14.147Z,999.26
2024-01-15T05:10:14.130Z,999.24
2024-01-15T05:11:14.092Z,999.21
2024-01-15T05:12:14.127Z,999.23
2024-01-15T05:13:14.063Z,999.24
2024-01-15T05:14:14.061Z,999.25
2024-01-15T05:15:14.107Z,999.24
2024-01-15T05:16:14.041Z,999.30
2024-01-15T05:17:14.035Z,999.25
2024-01-15T05:18:14.144Z,999.21
2024-01-15T05:19:14.174Z,999.20
2024-01-15T05:20:14.091Z,999.21
2024-01-15T05:21:14.070Z,999.21
2024-01-15T05:22:13.993Z,999.22
2024-01-15T05:23:13.957Z,999.21
2024-01-15T05:24:13.982Z,999.22
2024-01-15T05:25:13.979Z,999.25
2024-01-15T05:26:13.965Z,999.21
2024-01-15T05:27:13.970Z,999.26
2024-01-15T05:28:13.915Z,999.20
2024-01-15T05:29:13.917Z,999.23
2024-01-15T05:30:13.968Z,999.19
2024-01-15T05:31:14.000Z,999.18
2024-01-15T05:32:13.873Z,999.17
2024-01-15T05:33:13.963Z,999.16
2024-01-15T05:34:13.903Z,999.10
2024-01-15T05:35:13.850Z,999.14
2024-01-15T05:36:13.874Z,999.11
2024-01-15T05:37:13.817Z,999.13
2024-01-15T05:38:13.838Z,999.17
2024-01-15T05:39:13.809Z,999.10
2024-01-15T05:40:13.795Z,999.10
2024-01-15T05:41:13.772Z,999.12
2024-01-15T05:42:13.803Z,999.16
2024-01-15T05:43:13.748Z,999.14
2024-01-15T05:44:13.739Z,999.16
2024-01-15T05:45:13.775Z,999.11
2024-01-15T05:46:13.716Z,999.10
2024-01-15T05:47:13.707Z,999.14
2024-01-15T05:48:13.860Z,999.09
2024-01-15T05:49:13.844Z,999.15
2024-01-15T05:50:13.688Z,999.15
2024-01-15T05:51:13.695Z,999.10
2024-01-15T05:52:13.673Z,999.15
2024-01-15T05:53:13.645Z,999.15
2024-01-15T05:54:13.661Z,999.16
2024-01-15T05:55:13.628Z,999.19
2024-01-15T05:56:13.607Z,999.13
2024-01-15T05:57:13.637Z,999.16
2024-01-15T05:58:13.601Z,999.10
2024-01-15T05:59:15.787Z,999.09
2024-01-15T06:00:13.691Z,999.07
2024-01-15T06:01:13.688Z,999.08
2024-01-15T06:02:13.557Z,999.04
2024-01-15T06:03:13.548Z,999.01
2024-01-15T06:04:13.695Z,999.00
2024-01-15T06:05:13.549Z,999.00
2024-01-15T06:06:13.638Z,998.97
2024-01-15T06:07:13.497Z,998.94
2024-01-15T06:08:13.508Z,998.99
2024-01-15T06:09:13.578Z,998.96
2024-01-15T06:10:13.463Z,998.91
2024-01-15T06:11:13.444Z,998.91
2024-01-15T06:12:13.494Z,998.88
2024-01-15T06:13:13.435Z,998.90
2024-01-15T06:14:13.415Z,998.89
2024-01-15T06:15:13.439Z,998.91
2024-01-15T06:16:13.521Z,998.87
2024-01-15T06:17:13.396Z,998.96
2024-01-15T06:18:13.540Z,998.91
2024-01-15T06:19:13.432Z,998.85
2024-01-15T06:20:13.363Z,998.92
2024-01-15T06:21:13.373Z,998.81
2024-01-15T06:22:13.379Z,998.85
2024-01-15T06:23:13.316Z,998.78
2024-01-15T06:24:13.338Z,998.80
2024-01-15T06:25:13.316Z,998.81
2024-01-15T06:26:13.302Z,998.81
2024-01-15T06:27:13.294Z,998.84
2024-01-15T06:28:13.269Z,998.85
2024-01-15T06:29:13.251Z,998.88
2024-01-15T06:30:13.764Z,998.83
2024-01-15T06:31:13.395Z,998.83
2024-01-15T06:32:13.338Z,998.83
2024-01-15T06:33:13.317Z,998.84
2024-01-15T06:34:13.393Z,998.84
2024-01-15T06:35:13.227Z,998.80
2024-01-15T06:36:13.219Z,998.88
2024-01-15T06:37:13.180Z,998.84
2024-01-15T06:38:13.166Z,998.84
2024-01-15T06:39:13.178Z,998.86
2024-01-15T06:40:13.141Z,998.84
2024-01-15T06:41:13.153Z,998.76
2024-01-15T06:42:13.172Z,998.82
2024-01-15T06:43:13.116Z,998.80
2024-01-15T06:44:13.109Z,998.76
2024-01-15T06:45:13.114Z,998.76
2024-01-15T06:46:13.151Z,998.76
2024-01-15T06:47:13.075Z,998.77
2024-01-15T06:48:13.101Z,998.77
2024-01-15T06:49:13.228Z,998.72
2024-01-15T06:50:13.043Z,998.86
2024-01-15T06:51:13.046Z,998.86
2024-01-15T06:52:13.011Z,998.84
2024-01-15T06:53:12.996Z,998.86
2024-01-15T06:54:13.047Z,998.89
2024-01-15T06:55:13.004Z,998.88
2024-01-15T06:56:12.977Z,998.87
2024-01-15T06:57:13.000Z,998.92
2024-01-15T06:58:13.004Z,998.92
2024-01-15T06:59:14.685Z,998.88
2024-01-15T07:00:12.947Z,998.93
2024-01-15T07:01:12.986Z,998.88
2024-01-15T07:02:12.923Z,998.90
2024-01-15T07:03:12.998Z,998.88
2024-01-15T07:04:12.934Z,998.80
2024-01-15T07:05:12.898Z,998.80
2024-01-15T07:06:12.943Z,998.84
2024-01-15T07:07:12.856Z,998.83
2024-01-15T07:08:12.863Z,998.82
2024-01-15T07:09:12.915Z,998.77
2024-01-15T07:10:12.828Z,998.74
2024-01-15T07:11:12.825Z,998.75
2024-01-15T07:12:12.990Z,998.76
2024-01-15T07:13:12.805Z,998.78
2024-01-15T07:14:12.792Z,998.79
2024-01-15T07:15:12.813Z,998.79
2024-01-15T07:16:12.761Z,998.69
2024-01-15T07:17:12.777Z,998.76
2024-01-15T07:18:12.934Z,998.74
2024-01-15T07:19:12.823Z,998.69
2024-01-15T07:20:12.815Z,998.67
2024-01-15T07:21:12.737Z,998.68
2024-01-15T07:22:12.710Z,998.65
2024-01-15T07:23:12.698Z,998.75
2024-01-15T07:24:12.786Z,998.72
2024-01-15T07:25:12.673Z,998.75
2024-01-15T07:26:12.665Z,998.71
2024-01-15T07:27:12.680Z,998.75
2024-01-15T07:28:12.636Z,998.68
2024-01-15T07:29:12.627Z,998.72
2024-01-15T07:30:12.783Z,998.68
2024-01-15T07:31:12.679Z,998.73
2024-01-15T07:32:12.601Z,998.73
2024-01-15T07:33:12.727Z,998.72
2024-01-15T07:34:12.661Z,998.76
2024-01-15T07:35:12.594Z,998.73
2024-01-15T07:36:12.637Z,998.70
2024-01-15T07:37:12.546Z,998.72
2024-01-15T07:38:12.537Z,998.73
2024-01-15T07:39:12.564Z,998.70
2024-01-15T07:40:12.587Z,998.72
2024-01-15T07:41:12.504Z,998.75
2024-01-15T07:42:12.502Z,998.70
2024-01-15T07:43:12.470Z,998.70
2024-01-15T07:44:12.462Z,998.69
2024-01-15T07:45:12.514Z,998.72
2024-01-15T07:46:12.499Z,998.70
2024-01-15T07:47:12.435Z,998.68
2024-01-15T07:48:12.595Z,998.71
2024-01-15T07:49:12.456Z,998.71
2024-01-15T07:50:12.459Z,998.72
2024-01-15T07:51:12.461Z,998.68
2024-01-15T07:52:12.379Z,998.75
2024-01-15T07:53:12.367Z,998.77
2024-01-15T07:54:12.390Z,998.76
2024-01-15T07:55:12.352Z,998.74
2024-01-15T07:56:12.338Z,998.75
2024-01-15T07:57:12.406Z,998.73
2024-01-15T07:58:16.467Z,998.74
2024-01-15T07:59:12.308Z,998.75
2024-01-15T08:00:12.437Z,998.78
2024-01-15T08:01:12.432Z,998.71
2024-01-15T08:02:12.306Z,998.70
2024-01-15T08:03:12.388Z,998.71
2024-01-15T08:04:12.409Z,998.60
2024-01-15T08:05:12.256Z,998.73
2024-01-15T08:06:12.308Z,998.69
2024-01-15T08:07:12.295Z,998.70
2024-01-15T08:08:12.215Z,998.73
2024-01-15T08:09:12.234Z,998.74
2024-01-15T08:10:12.195Z,998.72
2024-01-15T08:11:12.173Z,998.76
2024-01-15T08:12:12.238Z,998.73
2024-01-15T08:13:12.197Z,998.65
2024-01-15T08:14:12.164Z,998.69
2024-01-15T08:15:12.178Z,998.65
2024-01-15T08:16:12.142Z,998.68
2024-01-15T08:17:12.109Z,998.68
2024-01-15T08:18:12.266Z,998.61
2024-01-15T08:19:12.312Z,998.62
2024-01-15T08:20:12.214Z,998.61
2024-01-15T08:21:12.066Z,998.57
2024-01-15T08:22:12.056Z,998.56
2024-01-15T08:23:12.051Z,998.61
2024-01-15T08:24:12.118Z,998.61
2024-01-15T08:25:12.024Z,998.60
2024-01-15T08:26:12.031Z,998.62
2024-01-15T08:27:12.087Z,998.58
2024-01-15T08:28:12.016Z,998.63
2024-01-15T08:29:11.992Z,998.58
2024-01-15T08:30:12.064Z,998.61
2024-01-15T08:31:12.056Z,998.59
2024-01-15T08:32:11.972Z,998.65
2024-01-15T08:33:21.118Z,998.69
2024-01-15T08:34:12.030Z,998.69
2024-01-15T08:35:12.006Z,998.68
2024-01-15T08:36:12.022Z,998.72
2024-01-15T08:37:11.898Z,998.74
2024-01-15T08:38:11.887Z,998.72
2024-01-15T08:39:11.922Z,998.72
2024-01-15T08:40:11.872Z,998.73
2024-01-15T08:41:11.862Z,998.72
2024-01-15T08:42:11.923Z,998.74
2024-01-15T08:43:11.845Z,998.73
2024-01-15T08:44:11.844Z,998.74
2024-01-15T08:45:11.825Z,998.73
2024-01-15T08:46:11.831Z,998.71
2024-01-15T08:47:11.789Z,998.75
2024-01-15T08:48:11.850Z,998.73
2024-01-15T08:49:11.806Z,998.72
2024-01-15T08:50:11.754Z,998.73
2024-01-15T08:51:11.779Z,998.74
2024-01-15T08:52:11.740Z,998.75
2024-01-15T08:53:11.719Z,998.76
2024-01-15T08:54:11.751Z,998.83
2024-01-15T08:55:11.716Z,998.80
2024-01-15T08:56:11.715Z,998.86
2024-01-15T08:57:11.697Z,998.78
2024-01-15T08:58:11.676Z,998.87
2024-01-15T08:59:11.669Z,998.84
2024-01-15T09:00:11.723Z,998.88
2024-01-15T09:01:11.812Z,998.89
2024-01-15T09:02:11.637Z,998.88
2024-01-15T09:03:11.651Z,998.89
2024-01-15T09:04:11.692Z,998.93
2024-01-15T09:05:11.770Z,998.97
2024-01-15T09:06:11.657Z,998.98
2024-01-15T09:07:11.572Z,999.01
2024-01-15T09:08:11.575Z,998.99
2024-01-15T09:09:11.603Z,999.01
2024-01-15T09:10:11.554Z,999.06
2024-01-15T09:11:11.533Z,999.01
2024-01-15T09:12:11.606Z,999.08
2024-01-15T09:13:11.504Z,999.04
2024-01-15T09:14:11.510Z,999.04
2024-01-15T09:15:11.520Z,999.01
2024-01-15T09:16:11.570Z,999.13
2024-01-15T09:17:11.458Z,999.08
2024-01-15T09:18:11.572Z,999.09
2024-01-15T09:19:11.543Z,999.08
2024-01-15T09:20:11.481Z,999.08
2024-01-15T09:21:11.521Z,999.08
2024-01-15T09:22:11.417Z,999.12
2024-01-15T09:23:11.405Z,999.20
2024-01-15T09:24:11.424Z,999.14
2024-01-15T09:25:11.536Z,999.13
2024-01-15T09:26:11.369Z,999.16
2024-01-15T09:27:11.444Z,999.14
2024-01-15T09:28:11.370Z,999.10
2024-01-15T09:29:11.345Z,999.03
2024-01-15T09:30:11.489Z,999.04
2024-01-15T09:31:11.405Z,999.01
2024-01-15T09:32:11.394Z,999.01
2024-01-15T09:33:11.501Z,999.03
2024-01-15T09:34:11.411Z,998.99
2024-01-15T09:35:11.275Z,999.05
2024-01-15T09:36:11.308Z,999.01
2024-01-15T09:37:14.777Z,999.01
2024-01-15T09:38:11.249Z,999.07
2024-01-15T09:39:11.278Z,999.06
2024-01-15T09:40:11.240Z,999.08
2024-01-15T09:41:11.284Z,999.04
2024-01-15T09:42:11.240Z,999.18
2024-01-15T09:43:11.233Z,999.11
2024-01-15T09:44:11.180Z,999.10
2024-01-15T09:45:11.413Z,999.12
2024-01-15T09:46:11.182Z,999.12
2024-01-15T09:47:11.177Z,999.14
2024-01-15T09:48:11.214Z,999.13
2024-01-15T09:49:11.230Z,999.14
2024-01-15T09:50:11.290Z,999.15
2024-01-15T09:51:11.146Z,999.15
2024-01-15T09:52:12.317Z,999.14
2024-01-15T09:53:11.088Z,999.14
2024-01-15T09:54:11.133Z,999.18
2024-01-15T09:55:11.242Z,999.14
2024-01-15T09:56:11.086Z,999.19
2024-01-15T09:57:11.078Z,999.18
2024-01-15T09:58:11.030Z,999.16
2024-01-15T09:59:11.024Z,999.16
2024-01-15T10:00:11.061Z,999.16
2024-01-15T10:01:11.097Z,999.18
2024-01-15T10:02:11.016Z,999.19
2024-01-15T10:03:11.534Z,999.22
2024-01-15T10:04:11.079Z,999.19
2024-01-15T10:05:10.984Z,999.19
2024-01-15T10:06:11.033Z,999.26
2024-01-15T10:07:10.966Z,999.28
2024-01-15T10:08:10.918Z,999.23
2024-01-15T10:09:10.964Z,999.26
2024-01-15T10:10:10.915Z,999.24
2024-01-15T10:11:10.894Z,999.28
2024-01-15T10:12:10.912Z,999.28
2024-01-15T10:13:10.867Z,999.24
2024-01-15T10:14:10.862Z,999.25
2024-01-15T10:15:10.880Z,999.23
2024-01-15T10:16:10.835Z,999.25
2024-01-15T10:17:10.827Z,999.25
2024-01-15T10:18:10.988Z,999.29
2024-01-15T10:19:10.992Z,999.19
2024-01-15T10:20:10.860Z,999.26
2024-01-15T10:21:10.823Z,999.29
2024-01-15T10:22:10.771Z,999.21
2024-01-15T10:23:10.772Z,999.25
2024-01-15T10:24:10.763Z,999.24
2024-01-15T10:25:10.756Z,999.24
2024-01-15T10:26:10.723Z,999.25
2024-01-15T10:27:10.797Z,999.27
2024-01-15T10:28:10.715Z,999.21
2024-01-15T10:29:10.695Z,999.23
2024-01-15T10:30:10.726Z,999.21
2024-01-15T10:31:10.750Z,999.17
2024-01-15T10:32:10.990Z,999.24
2024-01-15T10:33:10.835Z,999.23
2024-01-15T10:34:10.771Z,999.22
2024-01-15T10:35:10.660Z,999.14
2024-01-15T10:36:10.747Z,999.17
2024-01-15T10:37:10.731Z,999.21
2024-01-15T10:38:10.619Z,999.19
2024-01-15T10:39:10.673Z,999.19
2024-01-15T10:40:10.574Z,999.22
2024-01-15T10:41:10.598Z,999.22
2024-01-15T10:42:10.609Z,999.20
2024-01-15T10:43:10.555Z,999.19
2024-01-15T10:44:10.540Z,999.20
2024-01-15T10:45:10.587Z,999.16
2024-01-15T10:46:10.556Z,999.13
2024-01-15T10:47:10.517Z,999.12
2024-01-15T10:48:10.719Z,999.14
2024-01-15T10:49:10.589Z,999.18
2024-01-15T10:50:10.469Z,999.19
2024-01-15T10:51:10.498Z,999.12
2024-01-15T10:52:10.456Z,999.19
2024-01-15T10:53:10.445Z,999.19
2024-01-15T10:54:10.453Z,999.17
2024-01-15T10:55:14.521Z,999.14
2024-01-15T10:56:10.492Z,999.16
2024-01-15T10:57:10.453Z,999.15
2024-01-15T10:58:10.383Z,999.17
2024-01-15T10:59:10.385Z,999.17
2024-01-15T11:00:10.584Z,999.15
2024-01-15T11:01:10.447Z,999.12
2024-01-15T11:02:10.401Z,999.20
2024-01-15T11:03:10.538Z,999.19
2024-01-15T11:04:10.462Z,999.26
2024-01-15T11:05:10.352Z,999.31
2024-01-15T11:07:10.346Z,999.23
2024-01-15T11:08:10.292Z,999.22
2024-01-15T11:09:10.423Z,999.20
2024-01-15T11:10:10.270Z,999.22
2024-01-15T11:11:10.268Z,999.22
2024-01-15T11:12:10.377Z,999.18
2024-01-15T11:13:10.230Z,999.22
2024-01-15T11:14:10.249Z,999.22
2024-01-15T11:15:10.658Z,999.22
2024-01-15T11:16:10.218Z,999.22
2024-01-15T11:17:10.196Z,999.16
2024-01-15T11:18:10.258Z,999.10
2024-01-15T11:19:10.287Z,999.08
2024-01-15T11:20:10.188Z,999.17
2024-01-15T11:21:10.256Z,999.10
2024-01-15T11:22:10.144Z,999.11
2024-01-15T11:23:10.185Z,999.15
2024-01-15T11:24:10.222Z,999.13
2024-01-15T11:25:10.118Z,999.16
2024-01-15T11:26:10.094Z,999.14
2024-01-15T11:27:10.103Z,999.18
2024-01-15T11:28:10.078Z,999.18
2024-01-15T11:29:10.065Z,999.16
2024-01-15T11:30:10.128Z,999.09
2024-01-15T11:31:10.180Z,999.12
2024-01-15T11:32:10.233Z,999.15
2024-01-15T11:33:10.148Z,999.13
2024-01-15T11:34:10.232Z,999.13
2024-01-15T11:35:10.034Z,999.11
2024-01-15T11:36:09.982Z,999.22
2024-01-15T11:37:09.989Z,999.17
2024-01-15T11:38:09.969Z,999.11
2024-01-15T11:39:09.957Z,999.13
2024-01-15T11:40:09.941Z,999.12
2024-01-15T11:41:09.934Z,999.12
2024-01-15T11:42:09.960Z,999.06
2024-01-15T11:43:09.940Z,999.06
2024-01-15T11:44:09.904Z,999.13
2024-01-15T11:45:09.909Z,999.10
2024-01-15T11:46:09.950Z,999.11
2024-01-15T11:47:12.966Z,999.11
2024-01-15T11:48:09.919Z,999.16
2024-01-15T11:49:09.911Z,999.13
2024-01-15T11:50:10.012Z,999.01
2024-01-15T11:51:09.834Z,999.04
2024-01-15T11:52:09.832Z,999.14
2024-01-15T11:53:09.820Z,999.12
2024-01-15T11:54:09.828Z,999.10
2024-01-15T11:55:09.796Z,999.09
2024-01-15T11:56:09.789Z,999.09
2024-01-15T11:57:09.771Z,999.07
2024-01-15T11:58:09.771Z,999.05
2024-01-15T11:59:09.755Z,999.00
2024-01-15T12:00:09.742Z,999.07
2024-01-15T12:01:09.848Z,999.04
2024-01-15T12:02:09.707Z,999.13
2024-01-15T12:03:09.701Z,999.12
2024-01-15T12:04:09.855Z,999.14
2024-01-15T12:05:09.767Z,999.16
2024-01-15T12:06:09.737Z,999.07
2024-01-15T12:07:09.744Z,999.12
2024-01-15T12:08:09.642Z,999.13
2024-01-15T12:09:09.642Z,999.16
2024-01-15T12:10:09.630Z,999.15
2024-01-15T12:11:09.616Z,999.15
2024-01-15T12:12:09.599Z,999.12
2024-01-15T12:13:09.617Z,999.19
2024-01-15T12:14:09.616Z,999.08
2024-01-15T12:15:09.584Z,999.13
2024-01-15T12:16:09.739Z,999.17
2024-01-15T12:17:09.566Z,999.07
2024-01-15T12:18:09.575Z,999.13
2024-01-15T12:19:09.669Z,999.14
2024-01-15T12:20:09.537Z,999.12
2024-01-15T12:21:09.506Z,999.12
2024-01-15T12:22:09.505Z,999.10
2024-01-15T12:23:10.419Z,999.08
2024-01-15T12:24:09.499Z,999.07
2024-01-15T12:25:09.472Z,999.11